sensor_id;sensor_type;location;lat;lon;timestamp;P1;durP1;ratioP1;P2;durP2;ratioP2
40837;SDS011;29632;49.168;9.848;2023-08-17T00:00:26;2.38;;;1.65;;
40837;SDS011;29632;49.168;9.848;2023-08-17T00:02:52;3.47;;;1.90;;
40837;SDS011;29632;49.168;9.848;2023-08-17T00:05:17;2.17;;;1.48;;
40837;SDS011;29632;49.168;9.848;2023-08-17T00:07:44;2.50;;;1.67;;
40837;SDS011;29632;49.168;9.848;2023-08-17T00:10:09;4.25;;;2.05;;
40837;SDS011;29632;49.168;9.848;2023-08-17T00:12:35;3.17;;;1.95;;
40837;SDS011;29632;49.168;9.848;2023-08-17T00:15:01;2.25;;;1.63;;
40837;SDS011;29632;49.168;9.848;2023-08-17T00:17:27;2.10;;;1.42;;
40837;SDS011;29632;49.168;9.848;2023-08-17T00:19:52;2.30;;;1.50;;
40837;SDS011;29632;49.168;9.848;2023-08-17T00:22:18;4.10;;;2.28;;
40837;SDS011;29632;49.168;9.848;2023-08-17T00:24:44;4.20;;;2.25;;
40837;SDS011;29632;49.168;9.848;2023-08-17T00:27:10;2.67;;;1.40;;
40837;SDS011;29632;49.168;9.848;2023-08-17T00:29:36;3.10;;;1.83;;
40837;SDS011;29632;49.168;9.848;2023-08-17T00:32:02;2.95;;;1.60;;
40837;SDS011;29632;49.168;9.848;2023-08-17T00:34:28;3.97;;;2.20;;
40837;SDS011;29632;49.168;9.848;2023-08-17T00:36:54;3.75;;;1.90;;
40837;SDS011;29632;49.168;9.848;2023-08-17T00:39:20;1.88;;;1.63;;
40837;SDS011;29632;49.168;9.848;2023-08-17T00:41:46;4.90;;;1.98;;
40837;SDS011;29632;49.168;9.848;2023-08-17T00:44:11;3.55;;;1.73;;
40837;SDS011;29632;49.168;9.848;2023-08-17T00:46:37;3.88;;;2.30;;
40837;SDS011;29632;49.168;9.848;2023-08-17T00:49:03;3.60;;;2.15;;
40837;SDS011;29632;49.168;9.848;2023-08-17T00:51:31;4.32;;;2.20;;
40837;SDS011;29632;49.168;9.848;2023-08-17T00:53:57;2.35;;;1.88;;
40837;SDS011;29632;49.168;9.848;2023-08-17T00:56:25;2.53;;;2.00;;
40837;SDS011;29632;49.168;9.848;2023-08-17T00:58:52;4.75;;;2.13;;
40837;SDS011;29632;49.168;9.848;2023-08-17T01:01:19;3.78;;;2.05;;
40837;SDS011;29632;49.168;9.848;2023-08-17T01:03:45;5.95;;;2.50;;
40837;SDS011;29632;49.168;9.848;2023-08-17T01:06:11;4.95;;;2.10;;
40837;SDS011;29632;49.168;9.848;2023-08-17T01:08:37;3.28;;;1.73;;
40837;SDS011;29632;49.168;9.848;2023-08-17T01:11:12;4.05;;;2.28;;
40837;SDS011;29632;49.168;9.848;2023-08-17T01:16:33;4.13;;;2.28;;
40837;SDS011;29632;49.168;9.848;2023-08-17T01:19:07;4.03;;;2.20;;
40837;SDS011;29632;49.168;9.848;2023-08-17T01:21:41;5.85;;;2.17;;
40837;SDS011;29632;49.168;9.848;2023-08-17T01:24:14;4.90;;;2.10;;
40837;SDS011;29632;49.168;9.848;2023-08-17T01:26:40;3.63;;;2.13;;
40837;SDS011;29632;49.168;9.848;2023-08-17T01:29:05;3.63;;;2.35;;
40837;SDS011;29632;49.168;9.848;2023-08-17T01:31:32;5.32;;;2.50;;
40837;SDS011;29632;49.168;9.848;2023-08-17T01:34:09;3.25;;;2.00;;
40837;SDS011;29632;49.168;9.848;2023-08-17T01:36:43;2.55;;;1.85;;
40837;SDS011;29632;49.168;9.848;2023-08-17T01:39:18;5.20;;;2.45;;
40837;SDS011;29632;49.168;9.848;2023-08-17T01:41:52;3.45;;;2.13;;
40837;SDS011;29632;49.168;9.848;2023-08-17T01:44:21;4.20;;;1.92;;
40837;SDS011;29632;49.168;9.848;2023-08-17T01:46:48;3.03;;;2.20;;
40837;SDS011;29632;49.168;9.848;2023-08-17T01:49:14;5.65;;;2.85;;
40837;SDS011;29632;49.168;9.848;2023-08-17T01:51:39;3.70;;;2.63;;
40837;SDS011;29632;49.168;9.848;2023-08-17T01:54:05;5.13;;;2.30;;
40837;SDS011;29632;49.168;9.848;2023-08-17T01:56:31;3.45;;;2.22;;
40837;SDS011;29632;49.168;9.848;2023-08-17T01:58:57;4.00;;;2.72;;
40837;SDS011;29632;49.168;9.848;2023-08-17T02:01:23;3.58;;;2.40;;
40837;SDS011;29632;49.168;9.848;2023-08-17T02:03:48;6.32;;;2.42;;
40837;SDS011;29632;49.168;9.848;2023-08-17T02:06:14;4.28;;;2.70;;
40837;SDS011;29632;49.168;9.848;2023-08-17T02:08:40;4.88;;;2.65;;
40837;SDS011;29632;49.168;9.848;2023-08-17T02:11:06;5.50;;;3.33;;
40837;SDS011;29632;49.168;9.848;2023-08-17T02:13:32;4.97;;;2.60;;
40837;SDS011;29632;49.168;9.848;2023-08-17T02:15:58;5.80;;;2.63;;
40837;SDS011;29632;49.168;9.848;2023-08-17T02:18:23;3.67;;;2.72;;
40837;SDS011;29632;49.168;9.848;2023-08-17T02:20:49;5.32;;;3.00;;
40837;SDS011;29632;49.168;9.848;2023-08-17T02:23:15;5.57;;;2.72;;
40837;SDS011;29632;49.168;9.848;2023-08-17T02:25:41;4.97;;;3.00;;
40837;SDS011;29632;49.168;9.848;2023-08-17T02:28:06;5.47;;;2.97;;
40837;SDS011;29632;49.168;9.848;2023-08-17T02:30:32;2.90;;;2.58;;
40837;SDS011;29632;49.168;9.848;2023-08-17T02:32:58;4.75;;;2.50;;
40837;SDS011;29632;49.168;9.848;2023-08-17T02:35:24;3.78;;;2.25;;
40837;SDS011;29632;49.168;9.848;2023-08-17T02:37:50;4.63;;;2.65;;
40837;SDS011;29632;49.168;9.848;2023-08-17T02:40:16;4.38;;;2.55;;
40837;SDS011;29632;49.168;9.848;2023-08-17T02:42:42;6.40;;;3.20;;
40837;SDS011;29632;49.168;9.848;2023-08-17T02:45:08;6.65;;;2.55;;
40837;SDS011;29632;49.168;9.848;2023-08-17T02:47:34;5.90;;;2.85;;
40837;SDS011;29632;49.168;9.848;2023-08-17T02:50:00;5.90;;;2.78;;
40837;SDS011;29632;49.168;9.848;2023-08-17T02:52:26;5.22;;;2.88;;
40837;SDS011;29632;49.168;9.848;2023-08-17T02:54:51;4.63;;;2.47;;
40837;SDS011;29632;49.168;9.848;2023-08-17T02:57:17;5.32;;;2.40;;
40837;SDS011;29632;49.168;9.848;2023-08-17T02:59:43;3.25;;;2.22;;
40837;SDS011;29632;49.168;9.848;2023-08-17T03:02:09;5.43;;;2.40;;
40837;SDS011;29632;49.168;9.848;2023-08-17T03:04:35;2.95;;;2.10;;
40837;SDS011;29632;49.168;9.848;2023-08-17T03:07:00;4.20;;;2.08;;
40837;SDS011;29632;49.168;9.848;2023-08-17T03:09:26;4.05;;;2.40;;
40837;SDS011;29632;49.168;9.848;2023-08-17T03:11:52;3.50;;;2.42;;
40837;SDS011;29632;49.168;9.848;2023-08-17T03:14:18;3.05;;;2.30;;
40837;SDS011;29632;49.168;9.848;2023-08-17T03:16:44;3.95;;;1.98;;
40837;SDS011;29632;49.168;9.848;2023-08-17T03:19:09;5.97;;;2.83;;
40837;SDS011;29632;49.168;9.848;2023-08-17T03:21:36;4.07;;;2.17;;
40837;SDS011;29632;49.168;9.848;2023-08-17T03:24:03;3.97;;;2.13;;
40837;SDS011;29632;49.168;9.848;2023-08-17T03:26:29;3.28;;;2.60;;
40837;SDS011;29632;49.168;9.848;2023-08-17T03:28:55;4.82;;;2.58;;
40837;SDS011;29632;49.168;9.848;2023-08-17T03:31:21;6.07;;;2.72;;
40837;SDS011;29632;49.168;9.848;2023-08-17T03:33:47;2.65;;;1.92;;
40837;SDS011;29632;49.168;9.848;2023-08-17T03:36:13;3.28;;;2.08;;
40837;SDS011;29632;49.168;9.848;2023-08-17T03:38:39;3.60;;;2.08;;
40837;SDS011;29632;49.168;9.848;2023-08-17T03:41:05;2.60;;;2.00;;
40837;SDS011;29632;49.168;9.848;2023-08-17T03:43:31;4.45;;;2.30;;
40837;SDS011;29632;49.168;9.848;2023-08-17T03:45:57;3.10;;;2.00;;
40837;SDS011;29632;49.168;9.848;2023-08-17T03:48:23;2.88;;;1.67;;
40837;SDS011;29632;49.168;9.848;2023-08-17T03:50:52;3.17;;;1.97;;
40837;SDS011;29632;49.168;9.848;2023-08-17T03:53:19;3.33;;;1.60;;
40837;SDS011;29632;49.168;9.848;2023-08-17T03:55:49;3.60;;;1.97;;
40837;SDS011;29632;49.168;9.848;2023-08-17T03:58:16;5.35;;;1.92;;
40837;SDS011;29632;49.168;9.848;2023-08-17T04:00:48;3.30;;;1.70;;
40837;SDS011;29632;49.168;9.848;2023-08-17T04:03:18;2.65;;;1.83;;
40837;SDS011;29632;49.168;9.848;2023-08-17T04:05:44;2.97;;;1.50;;
40837;SDS011;29632;49.168;9.848;2023-08-17T04:08:10;2.45;;;1.75;;
40837;SDS011;29632;49.168;9.848;2023-08-17T04:10:36;4.10;;;2.22;;
40837;SDS011;29632;49.168;9.848;2023-08-17T04:13:02;3.87;;;1.67;;
40837;SDS011;29632;49.168;9.848;2023-08-17T04:15:28;4.00;;;2.30;;
40837;SDS011;29632;49.168;9.848;2023-08-17T04:17:53;2.47;;;1.73;;
40837;SDS011;29632;49.168;9.848;2023-08-17T04:20:19;3.13;;;1.70;;
40837;SDS011;29632;49.168;9.848;2023-08-17T04:22:46;3.80;;;2.33;;
40837;SDS011;29632;49.168;9.848;2023-08-17T04:25:12;2.33;;;1.48;;
40837;SDS011;29632;49.168;9.848;2023-08-17T04:27:38;2.85;;;1.77;;
40837;SDS011;29632;49.168;9.848;2023-08-17T04:30:04;2.75;;;1.98;;
40837;SDS011;29632;49.168;9.848;2023-08-17T04:32:31;3.00;;;1.95;;
40837;SDS011;29632;49.168;9.848;2023-08-17T04:34:57;5.07;;;2.00;;
40837;SDS011;29632;49.168;9.848;2023-08-17T04:37:22;2.63;;;1.77;;
40837;SDS011;29632;49.168;9.848;2023-08-17T04:39:48;2.47;;;1.80;;
40837;SDS011;29632;49.168;9.848;2023-08-17T04:42:14;3.78;;;1.80;;
40837;SDS011;29632;49.168;9.848;2023-08-17T04:44:40;1.90;;;1.50;;
40837;SDS011;29632;49.168;9.848;2023-08-17T04:47:05;3.20;;;1.60;;
40837;SDS011;29632;49.168;9.848;2023-08-17T04:49:31;3.00;;;2.23;;
40837;SDS011;29632;49.168;9.848;2023-08-17T04:51:57;2.50;;;1.63;;
40837;SDS011;29632;49.168;9.848;2023-08-17T04:54:23;3.03;;;1.63;;
40837;SDS011;29632;49.168;9.848;2023-08-17T04:56:48;2.97;;;1.80;;
40837;SDS011;29632;49.168;9.848;2023-08-17T04:59:14;2.10;;;1.60;;
40837;SDS011;29632;49.168;9.848;2023-08-17T05:01:40;1.77;;;1.50;;
40837;SDS011;29632;49.168;9.848;2023-08-17T05:04:06;9.45;;;1.92;;
40837;SDS011;29632;49.168;9.848;2023-08-17T05:06:32;5.53;;;2.00;;
40837;SDS011;29632;49.168;9.848;2023-08-17T05:08:58;6.20;;;2.72;;
40837;SDS011;29632;49.168;9.848;2023-08-17T05:11:23;4.68;;;1.95;;
40837;SDS011;29632;49.168;9.848;2023-08-17T05:13:49;3.90;;;2.33;;
40837;SDS011;29632;49.168;9.848;2023-08-17T05:16:15;5.28;;;2.00;;
40837;SDS011;29632;49.168;9.848;2023-08-17T05:18:41;3.03;;;2.10;;
40837;SDS011;29632;49.168;9.848;2023-08-17T05:21:06;4.60;;;2.28;;
40837;SDS011;29632;49.168;9.848;2023-08-17T05:23:32;3.10;;;1.73;;
40837;SDS011;29632;49.168;9.848;2023-08-17T05:25:58;2.90;;;2.30;;
40837;SDS011;29632;49.168;9.848;2023-08-17T05:28:24;2.80;;;2.23;;
40837;SDS011;29632;49.168;9.848;2023-08-17T05:30:49;4.73;;;1.90;;
40837;SDS011;29632;49.168;9.848;2023-08-17T05:33:15;2.67;;;2.10;;
40837;SDS011;29632;49.168;9.848;2023-08-17T05:35:41;3.50;;;2.03;;
40837;SDS011;29632;49.168;9.848;2023-08-17T05:38:07;3.13;;;2.40;;
40837;SDS011;29632;49.168;9.848;2023-08-17T05:40:34;4.70;;;3.03;;
40837;SDS011;29632;49.168;9.848;2023-08-17T05:43:01;3.63;;;2.47;;
40837;SDS011;29632;49.168;9.848;2023-08-17T05:45:27;3.70;;;2.20;;
40837;SDS011;29632;49.168;9.848;2023-08-17T05:47:53;3.43;;;2.57;;
40837;SDS011;29632;49.168;9.848;2023-08-17T05:50:18;3.20;;;2.40;;
40837;SDS011;29632;49.168;9.848;2023-08-17T05:52:45;3.17;;;2.53;;
40837;SDS011;29632;49.168;9.848;2023-08-17T05:55:10;5.23;;;2.80;;
40837;SDS011;29632;49.168;9.848;2023-08-17T05:57:36;3.10;;;2.50;;
40837;SDS011;29632;49.168;9.848;2023-08-17T06:00:02;3.90;;;2.83;;
40837;SDS011;29632;49.168;9.848;2023-08-17T06:02:29;2.85;;;1.98;;
40837;SDS011;29632;49.168;9.848;2023-08-17T06:04:54;4.13;;;2.40;;
40837;SDS011;29632;49.168;9.848;2023-08-17T06:07:20;4.47;;;2.35;;
40837;SDS011;29632;49.168;9.848;2023-08-17T06:09:46;3.42;;;2.30;;
40837;SDS011;29632;49.168;9.848;2023-08-17T06:12:11;3.83;;;2.92;;
40837;SDS011;29632;49.168;9.848;2023-08-17T06:14:37;3.35;;;2.33;;
40837;SDS011;29632;49.168;9.848;2023-08-17T06:17:03;5.35;;;2.90;;
40837;SDS011;29632;49.168;9.848;2023-08-17T06:19:29;4.30;;;3.38;;
40837;SDS011;29632;49.168;9.848;2023-08-17T06:21:54;3.67;;;2.47;;
40837;SDS011;29632;49.168;9.848;2023-08-17T06:24:20;5.07;;;2.83;;
40837;SDS011;29632;49.168;9.848;2023-08-17T06:26:46;4.10;;;2.53;;
40837;SDS011;29632;49.168;9.848;2023-08-17T06:29:12;3.67;;;2.63;;
40837;SDS011;29632;49.168;9.848;2023-08-17T06:31:37;4.20;;;2.55;;
40837;SDS011;29632;49.168;9.848;2023-08-17T06:34:03;2.55;;;2.20;;
40837;SDS011;29632;49.168;9.848;2023-08-17T06:36:30;4.40;;;2.90;;
40837;SDS011;29632;49.168;9.848;2023-08-17T06:38:57;4.82;;;2.80;;
40837;SDS011;29632;49.168;9.848;2023-08-17T06:41:23;4.72;;;2.85;;
40837;SDS011;29632;49.168;9.848;2023-08-17T06:43:49;3.80;;;2.85;;
40837;SDS011;29632;49.168;9.848;2023-08-17T06:46:16;4.50;;;2.67;;
40837;SDS011;29632;49.168;9.848;2023-08-17T06:48:42;3.45;;;2.28;;
40837;SDS011;29632;49.168;9.848;2023-08-17T06:51:08;3.92;;;2.78;;
40837;SDS011;29632;49.168;9.848;2023-08-17T06:53:34;3.08;;;2.72;;
40837;SDS011;29632;49.168;9.848;2023-08-17T06:56:00;4.28;;;2.65;;
40837;SDS011;29632;49.168;9.848;2023-08-17T06:58:26;3.88;;;2.50;;
40837;SDS011;29632;49.168;9.848;2023-08-17T07:00:51;4.05;;;2.65;;
40837;SDS011;29632;49.168;9.848;2023-08-17T07:03:17;5.28;;;3.05;;
40837;SDS011;29632;49.168;9.848;2023-08-17T07:05:43;3.00;;;2.70;;
40837;SDS011;29632;49.168;9.848;2023-08-17T07:08:09;3.63;;;2.72;;
40837;SDS011;29632;49.168;9.848;2023-08-17T07:10:35;4.05;;;3.08;;
40837;SDS011;29632;49.168;9.848;2023-08-17T07:13:01;5.88;;;3.70;;
40837;SDS011;29632;49.168;9.848;2023-08-17T07:15:28;4.07;;;3.28;;
40837;SDS011;29632;49.168;9.848;2023-08-17T07:17:57;5.00;;;3.43;;
40837;SDS011;29632;49.168;9.848;2023-08-17T07:20:23;7.10;;;4.07;;
40837;SDS011;29632;49.168;9.848;2023-08-17T07:22:49;6.07;;;4.18;;
40837;SDS011;29632;49.168;9.848;2023-08-17T07:25:14;4.88;;;3.67;;
40837;SDS011;29632;49.168;9.848;2023-08-17T07:27:41;5.15;;;4.07;;
40837;SDS011;29632;49.168;9.848;2023-08-17T07:30:07;4.70;;;3.83;;
40837;SDS011;29632;49.168;9.848;2023-08-17T07:32:33;6.07;;;4.03;;
40837;SDS011;29632;49.168;9.848;2023-08-17T07:34:59;6.03;;;4.35;;
40837;SDS011;29632;49.168;9.848;2023-08-17T07:37:25;5.22;;;3.80;;
40837;SDS011;29632;49.168;9.848;2023-08-17T07:39:57;4.55;;;4.05;;
40837;SDS011;29632;49.168;9.848;2023-08-17T07:42:24;5.88;;;4.68;;
40837;SDS011;29632;49.168;9.848;2023-08-17T07:44:50;5.68;;;5.00;;
40837;SDS011;29632;49.168;9.848;2023-08-17T07:47:15;5.45;;;3.97;;
40837;SDS011;29632;49.168;9.848;2023-08-17T07:49:41;8.75;;;5.28;;
40837;SDS011;29632;49.168;9.848;2023-08-17T07:52:07;7.22;;;4.93;;
40837;SDS011;29632;49.168;9.848;2023-08-17T07:54:33;7.38;;;5.00;;
40837;SDS011;29632;49.168;9.848;2023-08-17T07:56:59;7.55;;;5.63;;
40837;SDS011;29632;49.168;9.848;2023-08-17T07:59:24;7.00;;;4.43;;
40837;SDS011;29632;49.168;9.848;2023-08-17T08:01:50;8.73;;;4.70;;
40837;SDS011;29632;49.168;9.848;2023-08-17T08:04:16;6.88;;;4.03;;
40837;SDS011;29632;49.168;9.848;2023-08-17T08:06:42;6.50;;;4.43;;
40837;SDS011;29632;49.168;9.848;2023-08-17T08:09:08;5.75;;;4.13;;
40837;SDS011;29632;49.168;9.848;2023-08-17T08:11:33;5.65;;;4.18;;
40837;SDS011;29632;49.168;9.848;2023-08-17T08:13:59;7.25;;;4.85;;
40837;SDS011;29632;49.168;9.848;2023-08-17T08:16:26;6.65;;;4.60;;
40837;SDS011;29632;49.168;9.848;2023-08-17T08:18:55;12.52;;;5.55;;
40837;SDS011;29632;49.168;9.848;2023-08-17T08:21:21;6.03;;;4.22;;
40837;SDS011;29632;49.168;9.848;2023-08-17T08:23:47;5.45;;;4.05;;
40837;SDS011;29632;49.168;9.848;2023-08-17T08:26:13;7.82;;;5.28;;
40837;SDS011;29632;49.168;9.848;2023-08-17T08:28:39;7.13;;;4.45;;
40837;SDS011;29632;49.168;9.848;2023-08-17T08:31:05;7.28;;;4.88;;
40837;SDS011;29632;49.168;9.848;2023-08-17T08:33:30;7.68;;;5.03;;
40837;SDS011;29632;49.168;9.848;2023-08-17T08:35:56;5.95;;;4.35;;
40837;SDS011;29632;49.168;9.848;2023-08-17T08:38:22;6.60;;;4.72;;
40837;SDS011;29632;49.168;9.848;2023-08-17T08:40:49;6.97;;;4.82;;
40837;SDS011;29632;49.168;9.848;2023-08-17T08:43:15;8.00;;;5.10;;
40837;SDS011;29632;49.168;9.848;2023-08-17T08:45:41;7.35;;;5.20;;
40837;SDS011;29632;49.168;9.848;2023-08-17T08:48:09;6.68;;;4.57;;
40837;SDS011;29632;49.168;9.848;2023-08-17T08:50:36;7.35;;;5.03;;
40837;SDS011;29632;49.168;9.848;2023-08-17T08:53:08;7.80;;;4.80;;
40837;SDS011;29632;49.168;9.848;2023-08-17T08:55:39;6.40;;;4.45;;
40837;SDS011;29632;49.168;9.848;2023-08-17T08:58:22;5.00;;;3.92;;
40837;SDS011;29632;49.168;9.848;2023-08-17T09:00:49;5.72;;;4.32;;
40837;SDS011;29632;49.168;9.848;2023-08-17T09:03:15;5.75;;;4.68;;
40837;SDS011;29632;49.168;9.848;2023-08-17T09:05:48;5.38;;;4.30;;
40837;SDS011;29632;49.168;9.848;2023-08-17T09:08:22;6.88;;;4.78;;
40837;SDS011;29632;49.168;9.848;2023-08-17T09:10:54;5.25;;;4.55;;
40837;SDS011;29632;49.168;9.848;2023-08-17T09:13:20;5.28;;;4.13;;
40837;SDS011;29632;49.168;9.848;2023-08-17T09:15:46;15.63;;;5.28;;
40837;SDS011;29632;49.168;9.848;2023-08-17T09:18:11;6.95;;;5.03;;
40837;SDS011;29632;49.168;9.848;2023-08-17T09:20:38;5.80;;;3.97;;
40837;SDS011;29632;49.168;9.848;2023-08-17T09:25:47;7.80;;;5.25;;
40837;SDS011;29632;49.168;9.848;2023-08-17T09:28:17;5.25;;;4.68;;
40837;SDS011;29632;49.168;9.848;2023-08-17T09:33:22;6.55;;;4.85;;
40837;SDS011;29632;49.168;9.848;2023-08-17T09:35:49;6.30;;;4.72;;
40837;SDS011;29632;49.168;9.848;2023-08-17T09:38:17;5.53;;;4.93;;
40837;SDS011;29632;49.168;9.848;2023-08-17T09:40:44;5.47;;;4.90;;
40837;SDS011;29632;49.168;9.848;2023-08-17T09:43:10;5.38;;;3.95;;
40837;SDS011;29632;49.168;9.848;2023-08-17T09:45:39;6.55;;;4.85;;
40837;SDS011;29632;49.168;9.848;2023-08-17T09:50:33;6.47;;;5.07;;
40837;SDS011;29632;49.168;9.848;2023-08-17T09:53:01;6.93;;;5.75;;
40837;SDS011;29632;49.168;9.848;2023-08-17T09:57:59;5.72;;;4.38;;
40837;SDS011;29632;49.168;9.848;2023-08-17T10:00:26;6.78;;;5.15;;
40837;SDS011;29632;49.168;9.848;2023-08-17T10:02:53;6.90;;;5.72;;
40837;SDS011;29632;49.168;9.848;2023-08-17T10:05:20;8.32;;;6.35;;
40837;SDS011;29632;49.168;9.848;2023-08-17T10:07:46;6.47;;;5.03;;
40837;SDS011;29632;49.168;9.848;2023-08-17T10:10:22;6.55;;;5.28;;
40837;SDS011;29632;49.168;9.848;2023-08-17T10:15:34;6.47;;;5.38;;
40837;SDS011;29632;49.168;9.848;2023-08-17T10:18:22;6.85;;;5.35;;
40837;SDS011;29632;49.168;9.848;2023-08-17T10:21:07;6.82;;;5.93;;
40837;SDS011;29632;49.168;9.848;2023-08-17T10:23:48;7.80;;;6.00;;
40837;SDS011;29632;49.168;9.848;2023-08-17T10:26:14;8.80;;;5.90;;
40837;SDS011;29632;49.168;9.848;2023-08-17T10:28:40;7.13;;;5.25;;
40837;SDS011;29632;49.168;9.848;2023-08-17T10:31:06;7.13;;;5.68;;
40837;SDS011;29632;49.168;9.848;2023-08-17T10:33:34;8.90;;;7.05;;
40837;SDS011;29632;49.168;9.848;2023-08-17T10:36:00;6.30;;;5.70;;
40837;SDS011;29632;49.168;9.848;2023-08-17T10:38:26;6.90;;;5.88;;
40837;SDS011;29632;49.168;9.848;2023-08-17T10:41:08;7.93;;;6.07;;
40837;SDS011;29632;49.168;9.848;2023-08-17T10:43:55;7.55;;;5.63;;
40837;SDS011;29632;49.168;9.848;2023-08-17T10:46:32;6.68;;;5.05;;
40837;SDS011;29632;49.168;9.848;2023-08-17T10:49:04;5.93;;;5.28;;
40837;SDS011;29632;49.168;9.848;2023-08-17T10:51:35;7.13;;;4.90;;
40837;SDS011;29632;49.168;9.848;2023-08-17T10:54:01;7.45;;;5.55;;
40837;SDS011;29632;49.168;9.848;2023-08-17T10:56:29;6.97;;;5.60;;
40837;SDS011;29632;49.168;9.848;2023-08-17T10:58:59;6.88;;;5.18;;
40837;SDS011;29632;49.168;9.848;2023-08-17T11:01:33;6.20;;;5.13;;
40837;SDS011;29632;49.168;9.848;2023-08-17T11:04:16;6.53;;;4.75;;
40837;SDS011;29632;49.168;9.848;2023-08-17T11:06:43;5.13;;;4.63;;
40837;SDS011;29632;49.168;9.848;2023-08-17T11:09:09;6.60;;;4.68;;
40837;SDS011;29632;49.168;9.848;2023-08-17T11:11:36;7.00;;;5.30;;
40837;SDS011;29632;49.168;9.848;2023-08-17T11:14:02;6.97;;;5.20;;
40837;SDS011;29632;49.168;9.848;2023-08-17T11:16:28;6.53;;;4.88;;
40837;SDS011;29632;49.168;9.848;2023-08-17T11:18:54;5.28;;;4.53;;
40837;SDS011;29632;49.168;9.848;2023-08-17T11:21:23;8.85;;;5.78;;
40837;SDS011;29632;49.168;9.848;2023-08-17T11:23:49;6.35;;;4.88;;
40837;SDS011;29632;49.168;9.848;2023-08-17T11:26:18;7.53;;;4.90;;
40837;SDS011;29632;49.168;9.848;2023-08-17T11:28:44;6.65;;;4.50;;
40837;SDS011;29632;49.168;9.848;2023-08-17T11:31:11;10.80;;;5.15;;
40837;SDS011;29632;49.168;9.848;2023-08-17T11:33:39;6.60;;;4.82;;
40837;SDS011;29632;49.168;9.848;2023-08-17T11:36:06;6.10;;;5.50;;
40837;SDS011;29632;49.168;9.848;2023-08-17T11:38:35;8.15;;;4.53;;
40837;SDS011;29632;49.168;9.848;2023-08-17T11:41:03;5.20;;;4.00;;
40837;SDS011;29632;49.168;9.848;2023-08-17T11:43:30;6.75;;;4.70;;
40837;SDS011;29632;49.168;9.848;2023-08-17T11:45:57;5.65;;;4.50;;
40837;SDS011;29632;49.168;9.848;2023-08-17T11:48:23;6.35;;;5.03;;
40837;SDS011;29632;49.168;9.848;2023-08-17T11:50:51;6.20;;;4.97;;
40837;SDS011;29632;49.168;9.848;2023-08-17T11:53:17;6.43;;;4.25;;
40837;SDS011;29632;49.168;9.848;2023-08-17T11:55:43;5.55;;;4.88;;
40837;SDS011;29632;49.168;9.848;2023-08-17T11:58:09;5.88;;;4.57;;
40837;SDS011;29632;49.168;9.848;2023-08-17T12:00:35;5.85;;;4.35;;
40837;SDS011;29632;49.168;9.848;2023-08-17T12:03:05;6.00;;;4.82;;
40837;SDS011;29632;49.168;9.848;2023-08-17T12:05:32;5.07;;;4.28;;
40837;SDS011;29632;49.168;9.848;2023-08-17T12:08:00;7.88;;;5.35;;
40837;SDS011;29632;49.168;9.848;2023-08-17T12:10:28;4.75;;;4.18;;
40837;SDS011;29632;49.168;9.848;2023-08-17T12:12:56;4.95;;;4.45;;
40837;SDS011;29632;49.168;9.848;2023-08-17T12:15:32;6.68;;;4.60;;
40837;SDS011;29632;49.168;9.848;2023-08-17T12:18:01;5.53;;;4.78;;
40837;SDS011;29632;49.168;9.848;2023-08-17T12:20:29;7.40;;;4.07;;
40837;SDS011;29632;49.168;9.848;2023-08-17T12:22:57;6.18;;;4.85;;
40837;SDS011;29632;49.168;9.848;2023-08-17T12:25:26;8.15;;;4.55;;
40837;SDS011;29632;49.168;9.848;2023-08-17T12:27:52;5.40;;;4.43;;
40837;SDS011;29632;49.168;9.848;2023-08-17T12:30:25;7.72;;;4.72;;
40837;SDS011;29632;49.168;9.848;2023-08-17T12:33:01;7.95;;;4.60;;
40837;SDS011;29632;49.168;9.848;2023-08-17T12:35:27;5.40;;;4.75;;
40837;SDS011;29632;49.168;9.848;2023-08-17T12:37:55;5.30;;;4.80;;
40837;SDS011;29632;49.168;9.848;2023-08-17T12:40:21;6.55;;;4.72;;
40837;SDS011;29632;49.168;9.848;2023-08-17T12:42:48;5.53;;;4.60;;
40837;SDS011;29632;49.168;9.848;2023-08-17T12:45:14;7.30;;;5.25;;
40837;SDS011;29632;49.168;9.848;2023-08-17T12:47:41;7.85;;;5.05;;
40837;SDS011;29632;49.168;9.848;2023-08-17T12:50:07;6.38;;;4.78;;
40837;SDS011;29632;49.168;9.848;2023-08-17T12:52:34;5.85;;;5.00;;
40837;SDS011;29632;49.168;9.848;2023-08-17T12:55:00;5.72;;;4.35;;
40837;SDS011;29632;49.168;9.848;2023-08-17T12:57:25;6.68;;;5.22;;
40837;SDS011;29632;49.168;9.848;2023-08-17T12:59:51;5.53;;;4.75;;
40837;SDS011;29632;49.168;9.848;2023-08-17T13:02:19;8.30;;;5.78;;
40837;SDS011;29632;49.168;9.848;2023-08-17T13:04:45;6.43;;;4.80;;
40837;SDS011;29632;49.168;9.848;2023-08-17T13:07:11;6.13;;;5.10;;
40837;SDS011;29632;49.168;9.848;2023-08-17T13:09:37;4.97;;;4.32;;
40837;SDS011;29632;49.168;9.848;2023-08-17T13:12:02;7.65;;;5.10;;
40837;SDS011;29632;49.168;9.848;2023-08-17T13:14:28;5.57;;;4.32;;
40837;SDS011;29632;49.168;9.848;2023-08-17T13:16:54;7.32;;;4.60;;
40837;SDS011;29632;49.168;9.848;2023-08-17T13:19:20;8.32;;;5.03;;
40837;SDS011;29632;49.168;9.848;2023-08-17T13:21:46;5.25;;;4.75;;
40837;SDS011;29632;49.168;9.848;2023-08-17T13:24:12;7.68;;;5.38;;
40837;SDS011;29632;49.168;9.848;2023-08-17T13:26:38;6.65;;;5.18;;
40837;SDS011;29632;49.168;9.848;2023-08-17T13:29:04;5.50;;;4.65;;
40837;SDS011;29632;49.168;9.848;2023-08-17T13:31:30;7.43;;;5.05;;
40837;SDS011;29632;49.168;9.848;2023-08-17T13:33:56;10.68;;;5.10;;
40837;SDS011;29632;49.168;9.848;2023-08-17T13:36:21;15.65;;;6.13;;
40837;SDS011;29632;49.168;9.848;2023-08-17T13:38:47;6.40;;;5.15;;
40837;SDS011;29632;49.168;9.848;2023-08-17T13:41:13;4.78;;;4.22;;
40837;SDS011;29632;49.168;9.848;2023-08-17T13:43:39;5.70;;;4.60;;
40837;SDS011;29632;49.168;9.848;2023-08-17T13:46:05;6.43;;;4.82;;
40837;SDS011;29632;49.168;9.848;2023-08-17T13:48:31;6.72;;;4.80;;
40837;SDS011;29632;49.168;9.848;2023-08-17T13:50:57;6.28;;;4.68;;
40837;SDS011;29632;49.168;9.848;2023-08-17T13:53:22;6.75;;;5.60;;
40837;SDS011;29632;49.168;9.848;2023-08-17T13:55:48;7.32;;;5.85;;
40837;SDS011;29632;49.168;9.848;2023-08-17T13:58:14;8.15;;;5.95;;
40837;SDS011;29632;49.168;9.848;2023-08-17T14:00:40;5.85;;;4.80;;
40837;SDS011;29632;49.168;9.848;2023-08-17T14:03:06;6.35;;;4.55;;
40837;SDS011;29632;49.168;9.848;2023-08-17T14:05:32;6.38;;;4.65;;
40837;SDS011;29632;49.168;9.848;2023-08-17T14:07:58;7.03;;;4.40;;
40837;SDS011;29632;49.168;9.848;2023-08-17T14:10:24;5.78;;;4.35;;
40837;SDS011;29632;49.168;9.848;2023-08-17T14:12:50;5.57;;;4.97;;
40837;SDS011;29632;49.168;9.848;2023-08-17T14:15:15;5.88;;;4.30;;
40837;SDS011;29632;49.168;9.848;2023-08-17T14:17:41;5.72;;;5.07;;
40837;SDS011;29632;49.168;9.848;2023-08-17T14:20:07;5.97;;;5.00;;
40837;SDS011;29632;49.168;9.848;2023-08-17T14:22:33;5.30;;;4.68;;
40837;SDS011;29632;49.168;9.848;2023-08-17T14:24:59;6.07;;;5.00;;
40837;SDS011;29632;49.168;9.848;2023-08-17T14:27:25;6.72;;;5.28;;
40837;SDS011;29632;49.168;9.848;2023-08-17T14:29:51;10.18;;;5.85;;
40837;SDS011;29632;49.168;9.848;2023-08-17T14:32:16;6.57;;;5.53;;
40837;SDS011;29632;49.168;9.848;2023-08-17T14:34:42;7.28;;;5.30;;
40837;SDS011;29632;49.168;9.848;2023-08-17T14:37:08;8.02;;;5.43;;
40837;SDS011;29632;49.168;9.848;2023-08-17T14:39:34;7.90;;;5.85;;
40837;SDS011;29632;49.168;9.848;2023-08-17T14:41:59;5.32;;;4.72;;
40837;SDS011;29632;49.168;9.848;2023-08-17T14:44:25;7.90;;;5.57;;
40837;SDS011;29632;49.168;9.848;2023-08-17T14:46:51;9.82;;;5.68;;
40837;SDS011;29632;49.168;9.848;2023-08-17T14:49:17;6.70;;;5.20;;
40837;SDS011;29632;49.168;9.848;2023-08-17T14:51:42;6.47;;;5.40;;
40837;SDS011;29632;49.168;9.848;2023-08-17T14:54:09;5.95;;;5.32;;
40837;SDS011;29632;49.168;9.848;2023-08-17T14:56:35;7.32;;;5.35;;
40837;SDS011;29632;49.168;9.848;2023-08-17T14:59:00;7.25;;;5.82;;
40837;SDS011;29632;49.168;9.848;2023-08-17T15:01:27;6.70;;;5.38;;